Hughes, Arkansas
Current Conditions -  °F | °C
As of 11:53 AM on Monday 24 Nov 2014 (Local Time) from KAWM Reporting Station
Clear Clear  
Wind Chill: 52°   Ceiling: Unl
Heat Index: 52°   Visibility: 10mi
Dew Point: 35°   Wind: 9mph
Humidity: 53%   Direction: 280°W
Pressure: 29.89"   Gusts: 17mph
Location:  34.95°N, 90.47°W
Report Text: KAWM 241753Z AUTO 28008G15KT 240V330 10SM CLR 11/02 A2989 RMK AO2 SLP119 T01110017 10117 20083 51016
Loading
Personal Weather Stations






























Interactive Weather Map New forecast layout! Learn more

10-Day Weather Forecast

Advertisements
Track Severe Weather on mobile